createdAt,value
2019-04-20T00:02:27.506Z,100.00
2019-04-20T00:04:57.085Z,100.00
2019-04-20T00:07:30.043Z,100.00
2019-04-20T00:10:07.627Z,100.00
2019-04-20T00:12:39.975Z,100.00
2019-04-20T00:14:58.652Z,100.00
2019-04-20T00:17:28.610Z,100.00
2019-04-20T00:19:58.998Z,100.00
2019-04-20T00:22:47.037Z,100.00
2019-04-20T00:25:25.442Z,100.00
2019-04-20T00:28:21.074Z,100.00
2019-04-20T00:30:54.406Z,100.00
2019-04-20T00:33:23.698Z,100.00
2019-04-20T00:35:35.937Z,100.00
2019-04-20T00:38:05.625Z,100.00
2019-04-20T00:40:36.095Z,100.00
2019-04-20T00:43:06.766Z,100.00
2019-04-20T00:45:44.926Z,100.00
2019-04-20T00:48:19.082Z,100.00
2019-04-20T00:50:50.835Z,100.00
2019-04-20T00:53:19.555Z,100.00
2019-04-20T00:55:38.026Z,100.00
2019-04-20T00:58:17.373Z,100.00
2019-04-20T01:01:04.212Z,100.00
2019-04-20T01:03:23.286Z,100.00
2019-04-20T01:06:08.227Z,100.00
2019-04-20T01:08:19.085Z,100.00
2019-04-20T01:10:51.483Z,100.00
2019-04-20T01:13:22.927Z,100.00
2019-04-20T01:15:55.451Z,100.00
2019-04-20T01:18:19.473Z,100.00
2019-04-20T01:20:49.184Z,100.00
2019-04-20T01:23:21.309Z,100.00
2019-04-20T01:25:56.904Z,100.00
2019-04-20T01:28:33.802Z,100.00
2019-04-20T01:30:59.962Z,100.00
2019-04-20T01:33:32.069Z,100.00
2019-04-20T01:36:03.444Z,100.00
2019-04-20T01:38:34.670Z,100.00
2019-04-20T01:40:50.930Z,100.00
2019-04-20T01:43:20.609Z,100.00
2019-04-20T01:45:58.606Z,100.00
2019-04-20T01:48:25.995Z,100.00
2019-04-20T01:50:59.854Z,100.00
2019-04-20T01:53:40.334Z,100.00
2019-04-20T01:56:09.888Z,100.00
2019-04-20T01:58:42.124Z,100.00
2019-04-20T02:00:58.844Z,100.00
2019-04-20T02:03:48.467Z,100.00
2019-04-20T02:06:20.237Z,100.00
2019-04-20T02:08:50.892Z,100.00
2019-04-20T02:11:23.072Z,100.00
2019-04-20T02:13:53.404Z,100.00
2019-04-20T02:16:27.302Z,100.00
2019-04-20T02:19:05.253Z,100.00
2019-04-20T02:21:34.236Z,100.00
2019-04-20T02:23:55.593Z,100.00
2019-04-20T02:26:20.026Z,100.00
2019-04-20T02:29:12.205Z,100.00
2019-04-20T02:37:13.551Z,100.00
2019-04-20T02:39:45.547Z,100.00
2019-04-20T02:47:16.417Z,100.00
2019-04-20T02:52:12.419Z,100.00
2019-04-20T02:54:46.442Z,100.00
2019-04-20T02:57:37.870Z,100.00
2019-04-20T03:02:01.397Z,100.00
2019-04-20T03:04:28.348Z,100.00
2019-04-20T03:06:58.401Z,100.00
2019-04-20T03:09:36.870Z,100.00
2019-04-20T03:12:08.037Z,100.00
2019-04-20T03:14:32.418Z,100.00
2019-04-20T03:17:12.757Z,100.00
2019-04-20T03:19:31.419Z,100.00
2019-04-20T03:24:43.676Z,100.00
2019-04-20T03:27:09.613Z,100.00
2019-04-20T03:29:51.066Z,100.00
2019-04-20T03:37:28.039Z,100.00
2019-04-20T03:39:46.676Z,100.00
2019-04-20T03:42:03.646Z,100.00
2019-04-20T03:44:34.262Z,100.00
2019-04-20T03:47:06.880Z,100.00
2019-04-20T03:49:54.813Z,100.00
2019-04-20T03:52:27.820Z,100.00
2019-04-20T03:54:55.250Z,100.00
2019-04-20T03:57:34.801Z,100.00
2019-04-20T04:00:24.425Z,100.00
2019-04-20T04:03:08.469Z,100.00
2019-04-20T04:05:27.901Z,100.00
2019-04-20T04:07:45.284Z,100.00
2019-04-20T04:10:25.904Z,100.00
2019-04-20T04:13:09.538Z,100.00
2019-04-20T04:15:44.238Z,100.00
2019-04-20T04:18:17.712Z,100.00
2019-04-20T04:20:47.861Z,100.00
2019-04-20T04:23:31.139Z,100.00
2019-04-20T04:26:00.620Z,100.00
2019-04-20T04:28:28.559Z,100.00
2019-04-20T04:31:05.185Z,100.00
2019-04-20T04:36:00.430Z,100.00
2019-04-20T04:38:37.752Z,100.00
2019-04-20T04:43:37.285Z,100.00
2019-04-20T04:45:47.030Z,100.00
2019-04-20T04:48:23.813Z,100.00
2019-04-20T04:50:52.766Z,100.00
2019-04-20T04:53:27.213Z,100.00
2019-04-20T04:55:54.861Z,100.00
2019-04-20T04:58:17.401Z,100.00
2019-04-20T05:00:46.769Z,100.00
2019-04-20T05:03:35.369Z,100.00
2019-04-20T05:06:10.587Z,100.00
2019-04-20T05:08:26.149Z,100.00
2019-04-20T05:10:51.958Z,100.00
2019-04-20T05:13:21.935Z,100.00
2019-04-20T05:16:05.187Z,100.00
2019-04-20T05:18:44.824Z,100.00
2019-04-20T05:21:18.811Z,100.00
2019-04-20T05:23:37.401Z,100.00
2019-04-20T05:26:20.008Z,100.00
2019-04-20T05:28:48.562Z,100.00
2019-04-20T05:31:11.363Z,100.00
2019-04-20T05:34:02.314Z,100.00
2019-04-20T05:36:29.721Z,100.00
2019-04-20T05:39:03.362Z,100.00
2019-04-20T05:41:32.782Z,100.00
2019-04-20T05:43:59.756Z,100.00
2019-04-20T05:46:32.367Z,100.00
2019-04-20T05:49:13.486Z,100.00
2019-04-20T05:51:43.270Z,100.00
2019-04-20T05:54:07.174Z,100.00
2019-04-20T05:56:43.884Z,100.00
2019-04-20T05:59:07.322Z,100.00
2019-04-20T06:01:42.353Z,100.00
2019-04-20T06:04:10.376Z,100.00
2019-04-20T06:06:37.735Z,100.00
2019-04-20T06:11:53.577Z,100.00
2019-04-20T06:14:10.177Z,100.00
2019-04-20T06:17:11.167Z,100.00
2019-04-20T06:19:35.701Z,100.00
2019-04-20T06:22:23.103Z,100.00
2019-04-20T06:24:54.814Z,100.00
2019-04-20T06:27:10.406Z,100.00
2019-04-20T06:29:41.463Z,100.00
2019-04-20T06:32:23.453Z,100.00
2019-04-20T06:34:49.081Z,100.00
2019-04-20T06:37:10.089Z,100.00
2019-04-20T06:42:15.210Z,100.00
2019-04-20T06:44:41.408Z,100.00
2019-04-20T06:47:29.332Z,100.00
2019-04-20T06:50:03.360Z,100.00
2019-04-20T06:55:05.544Z,100.00
2019-04-20T06:57:40.362Z,100.00
2019-04-20T07:00:18.172Z,100.00
2019-04-20T07:02:44.772Z,98.12
2019-04-20T07:05:13.076Z,95.70
2019-04-20T07:07:45.099Z,98.92
2019-04-20T07:12:36.889Z,98.36
2019-04-20T07:15:08.559Z,96.87
2019-04-20T07:20:51.612Z,92.81
2019-04-20T07:23:23.688Z,89.86
2019-04-20T07:25:47.366Z,82.62
2019-04-20T07:28:24.319Z,79.97
2019-04-20T07:30:44.899Z,84.77
2019-04-20T07:33:24.389Z,88.11
2019-04-20T07:35:46.136Z,85.92
2019-04-20T07:38:31.275Z,82.45
2019-04-20T07:40:44.008Z,76.83
2019-04-20T07:43:14.665Z,75.69
2019-04-20T07:45:50.238Z,72.29
2019-04-20T07:48:30.753Z,77.48
2019-04-20T07:50:40.843Z,72.65
2019-04-20T07:53:18.771Z,75.17
2019-04-20T07:56:04.906Z,72.07
2019-04-20T07:58:10.918Z,68.64
2019-04-20T08:01:05.892Z,68.69
2019-04-20T08:05:50.328Z,76.61
2019-04-20T08:08:23.981Z,75.13
2019-04-20T08:10:55.021Z,77.14
2019-04-20T08:13:42.085Z,76.19
2019-04-20T08:16:00.623Z,69.19
2019-04-20T08:18:35.227Z,64.41
2019-04-20T08:21:03.859Z,68.50
2019-04-20T08:23:34.854Z,71.04
2019-04-20T08:25:52.347Z,65.74
2019-04-20T08:28:22.714Z,67.30
2019-04-20T08:31:06.566Z,65.19
2019-04-20T08:33:47.175Z,66.49
2019-04-20T08:36:12.285Z,66.71
2019-04-20T08:41:09.700Z,64.58
2019-04-20T08:46:15.074Z,62.18
2019-04-20T08:48:46.912Z,63.13
2019-04-20T08:51:16.545Z,62.06
2019-04-20T08:53:47.670Z,60.89
2019-04-20T08:56:11.913Z,54.64
2019-04-20T08:58:27.611Z,53.15
2019-04-20T09:01:00.192Z,52.39
2019-04-20T09:03:31.712Z,52.24
2019-04-20T09:06:06.399Z,54.53
2019-04-20T09:08:36.693Z,52.21
2019-04-20T09:11:16.717Z,50.04
2019-04-20T09:13:37.193Z,51.10
2019-04-20T09:15:59.972Z,54.12
2019-04-20T09:18:43.855Z,48.42
2019-04-20T09:21:18.299Z,46.47
2019-04-20T09:23:51.821Z,45.54
2019-04-20T09:26:25.054Z,49.41
2019-04-20T09:28:54.348Z,50.37
2019-04-20T09:31:33.110Z,44.60
2019-04-20T09:34:13.338Z,42.31
2019-04-20T09:36:44.648Z,45.92
2019-04-20T09:39:12.742Z,38.48
2019-04-20T09:41:56.290Z,37.57
2019-04-20T09:44:06.702Z,34.66
2019-04-20T09:46:41.285Z,35.38
2019-04-20T09:49:15.733Z,38.02
2019-04-20T09:51:50.041Z,41.34
2019-04-20T09:54:25.825Z,36.99
2019-04-20T09:57:02.143Z,39.04
2019-04-20T09:59:28.989Z,37.66
2019-04-20T10:01:45.030Z,37.04
2019-04-20T10:04:09.072Z,35.74
2019-04-20T10:06:39.314Z,36.20
2019-04-20T10:09:09.631Z,36.27
2019-04-20T10:11:41.779Z,33.84
2019-04-20T10:14:10.300Z,31.82
2019-04-20T10:16:39.996Z,33.41
2019-04-20T10:19:11.448Z,32.08
2019-04-20T10:21:39.120Z,34.29
2019-04-20T10:24:08.560Z,33.00
2019-04-20T10:26:38.576Z,30.44
2019-04-20T10:29:07.916Z,31.81
2019-04-20T10:31:42.660Z,29.21
2019-04-20T10:34:07.514Z,31.25
2019-04-20T10:36:43.843Z,26.04
2019-04-20T10:39:12.960Z,27.16
2019-04-20T10:41:48.950Z,27.66
2019-04-20T10:44:12.411Z,27.35
2019-04-20T10:46:41.036Z,28.53
2019-04-20T10:49:11.094Z,28.47
2019-04-20T10:51:40.303Z,28.33
2019-04-20T10:54:08.992Z,27.32
2019-04-20T10:56:37.640Z,27.26
2019-04-20T10:59:07.627Z,24.85
2019-04-20T11:01:37.856Z,27.04
2019-04-20T11:04:06.677Z,26.60
2019-04-20T11:06:36.485Z,26.10
2019-04-20T11:09:08.769Z,25.83
2019-04-20T11:11:38.782Z,26.48
2019-04-20T11:14:17.917Z,26.35
2019-04-20T11:16:40.287Z,27.09
2019-04-20T11:19:09.445Z,26.89
2019-04-20T11:21:40.808Z,28.95
2019-04-20T11:24:10.043Z,27.59
2019-04-20T11:26:41.641Z,26.15
2019-04-20T11:29:10.438Z,27.14
2019-04-20T11:31:46.338Z,26.30
2019-04-20T11:34:10.253Z,26.67
2019-04-20T11:36:39.311Z,26.65
2019-04-20T11:39:11.269Z,26.93
2019-04-20T11:41:41.490Z,25.59
2019-04-20T11:44:11.720Z,25.72
2019-04-20T11:46:40.814Z,25.25
2019-04-20T11:49:09.772Z,26.42
2019-04-20T11:51:39.442Z,26.58
2019-04-20T11:54:08.413Z,26.19
2019-04-20T11:56:40.728Z,25.81
2019-04-20T11:59:07.530Z,25.03
2019-04-20T12:01:50.215Z,26.39
2019-04-20T12:04:26.127Z,25.29
2019-04-20T12:06:46.574Z,24.07
2019-04-20T12:09:15.342Z,24.48
2019-04-20T12:11:55.987Z,23.55
2019-04-20T12:14:14.518Z,24.36
2019-04-20T12:16:43.756Z,24.47
2019-04-20T12:19:12.737Z,23.53
2019-04-20T12:21:42.179Z,24.21
2019-04-20T12:24:12.241Z,23.86
2019-04-20T12:26:41.198Z,23.74
2019-04-20T12:29:10.021Z,24.79
2019-04-20T12:31:39.788Z,23.45
2019-04-20T12:34:08.719Z,25.11
2019-04-20T12:36:39.495Z,23.54
2019-04-20T12:39:10.982Z,23.26
2019-04-20T12:41:48.056Z,22.94
2019-04-20T12:44:10.137Z,24.13
2019-04-20T12:46:38.877Z,25.27
2019-04-20T12:49:07.814Z,24.38
2019-04-20T12:51:47.418Z,24.83
2019-04-20T12:54:07.072Z,24.19
2019-04-20T12:56:35.718Z,24.84
2019-04-20T12:59:05.532Z,26.01
2019-04-20T13:01:35.447Z,24.89
2019-04-20T13:04:07.126Z,25.13
2019-04-20T13:06:37.127Z,25.39
2019-04-20T13:09:10.718Z,23.40
2019-04-20T13:11:50.749Z,23.42
2019-04-20T13:14:50.664Z,23.83
2019-04-20T13:17:20.017Z,23.44
2019-04-20T13:19:49.202Z,23.72
2019-04-20T13:22:19.017Z,23.58
2019-04-20T13:24:49.232Z,25.38
2019-04-20T13:27:18.747Z,24.90
2019-04-20T13:29:50.541Z,23.99
2019-04-20T13:32:18.148Z,24.41
2019-04-20T13:34:47.043Z,22.81
2019-04-20T13:37:17.985Z,21.81
2019-04-20T13:39:46.875Z,23.09
2019-04-20T13:42:22.703Z,23.05
2019-04-20T13:44:46.126Z,23.40
2019-04-20T13:47:14.942Z,24.23
2019-04-20T13:49:45.070Z,24.33
2019-04-20T13:52:15.026Z,25.31
2019-04-20T13:54:44.122Z,24.68
2019-04-20T13:57:19.745Z,24.48
2019-04-20T13:59:52.127Z,23.74
2019-04-20T14:02:25.102Z,22.88
2019-04-20T14:04:58.969Z,23.68
2019-04-20T14:07:29.233Z,21.97
2019-04-20T14:09:59.514Z,21.86
2019-04-20T14:12:35.132Z,22.74
2019-04-20T14:14:59.450Z,22.19
2019-04-20T14:17:29.011Z,21.65
2019-04-20T14:20:01.093Z,22.41
2019-04-20T14:22:29.297Z,22.51
2019-04-20T14:24:58.229Z,22.80
2019-04-20T14:27:26.871Z,21.93
2019-04-20T14:29:57.002Z,22.49
2019-04-20T14:32:27.104Z,22.54
2019-04-20T14:34:56.820Z,22.50
2019-04-20T14:37:26.746Z,22.34
2019-04-20T14:39:56.422Z,21.88
2019-04-20T14:42:34.799Z,23.61
2019-04-20T14:44:55.777Z,22.60
2019-04-20T14:47:26.088Z,25.18
2019-04-20T14:49:55.714Z,25.41
2019-04-20T14:52:25.900Z,25.93
2019-04-20T14:54:55.343Z,25.28
2019-04-20T14:57:25.500Z,25.95
2019-04-20T14:59:55.994Z,26.37
2019-04-20T15:02:25.904Z,26.24
2019-04-20T15:04:54.930Z,27.40
2019-04-20T15:07:24.657Z,26.97
2019-04-20T15:09:54.981Z,28.90
2019-04-20T15:12:37.627Z,31.23
2019-04-20T15:14:54.581Z,29.39
2019-04-20T15:17:27.876Z,28.12
2019-04-20T15:20:05.550Z,31.26
2019-04-20T15:22:49.662Z,30.28
2019-04-20T15:25:18.746Z,23.03
2019-04-20T15:27:48.137Z,22.99
2019-04-20T15:30:18.353Z,24.40
2019-04-20T15:32:47.223Z,22.88
2019-04-20T15:35:19.121Z,24.66
2019-04-20T15:37:47.040Z,26.21
2019-04-20T15:40:17.308Z,28.03
2019-04-20T15:42:56.159Z,24.69
2019-04-20T15:45:16.570Z,22.60
2019-04-20T15:47:45.903Z,24.36
2019-04-20T15:50:15.991Z,26.48
2019-04-20T15:52:49.425Z,25.71
2019-04-20T15:55:22.617Z,25.32
2019-04-20T15:57:45.736Z,25.44
2019-04-20T16:00:16.231Z,26.57
2019-04-20T16:02:47.340Z,28.23
2019-04-20T16:05:18.635Z,28.44
2019-04-20T16:07:53.489Z,28.55
2019-04-20T16:10:19.255Z,28.85
2019-04-20T16:12:52.711Z,30.03
2019-04-20T16:15:19.892Z,28.60
2019-04-20T16:17:53.094Z,29.56
2019-04-20T16:20:23.526Z,30.77
2019-04-20T16:22:52.259Z,30.62
2019-04-20T16:25:25.659Z,31.31
2019-04-20T16:27:55.744Z,32.57
2019-04-20T16:30:25.392Z,34.29
2019-04-20T16:32:54.668Z,34.74
2019-04-20T16:35:24.590Z,35.73
2019-04-20T16:37:53.515Z,36.32
2019-04-20T16:40:23.469Z,37.80
2019-04-20T16:42:52.714Z,37.77
2019-04-20T16:45:21.537Z,37.73
2019-04-20T16:47:50.220Z,38.82
2019-04-20T16:50:19.307Z,39.45
2019-04-20T16:52:48.841Z,38.27
2019-04-20T16:55:18.837Z,40.12
2019-04-20T16:57:49.543Z,40.66
2019-04-20T17:00:21.013Z,41.83
2019-04-20T17:02:52.260Z,43.31
2019-04-20T17:05:23.016Z,43.53
2019-04-20T17:07:53.655Z,43.12
2019-04-20T17:10:23.816Z,42.07
2019-04-20T17:12:53.707Z,42.25
2019-04-20T17:15:23.620Z,41.83
2019-04-20T17:17:53.805Z,42.05
2019-04-20T17:20:25.211Z,40.90
2019-04-20T17:22:56.234Z,41.99
2019-04-20T17:25:25.915Z,42.00
2019-04-20T17:28:06.897Z,44.42
2019-04-20T17:30:37.917Z,45.39
2019-04-20T17:33:11.579Z,46.54
2019-04-20T17:35:52.315Z,45.70
2019-04-20T17:38:12.160Z,47.26
2019-04-20T17:41:01.262Z,47.00
2019-04-20T17:43:22.087Z,48.16
2019-04-20T17:45:52.363Z,51.19
2019-04-20T17:48:23.308Z,49.54
2019-04-20T17:51:04.751Z,48.60
2019-04-20T17:53:29.383Z,50.32
2019-04-20T17:55:51.393Z,51.41
2019-04-20T17:58:24.113Z,53.26
2019-04-20T18:01:22.048Z,53.96
2019-04-20T18:04:11.065Z,53.61
2019-04-20T18:06:34.955Z,55.35
2019-04-20T18:09:04.785Z,53.77
2019-04-20T18:11:23.459Z,53.34
2019-04-20T18:13:58.924Z,58.45
2019-04-20T18:16:49.315Z,58.38
2019-04-20T18:19:17.004Z,57.78
2019-04-20T18:21:43.532Z,56.86
2019-04-20T18:24:23.962Z,60.37
2019-04-20T18:26:57.655Z,60.79
2019-04-20T18:29:37.272Z,60.13
2019-04-20T18:31:51.449Z,61.53
2019-04-20T18:34:25.345Z,66.58
2019-04-20T18:36:52.804Z,66.90
2019-04-20T18:39:29.105Z,67.81
2019-04-20T18:42:01.174Z,66.81
2019-04-20T18:44:30.366Z,67.76
2019-04-20T18:47:18.215Z,67.66
2019-04-20T18:49:38.638Z,63.60
2019-04-20T18:51:55.649Z,62.48
2019-04-20T18:54:28.667Z,65.97
2019-04-20T18:56:56.477Z,68.80
2019-04-20T18:59:31.759Z,66.71
2019-04-20T19:01:57.023Z,63.00
2019-04-20T19:04:27.947Z,62.31
2019-04-20T19:06:59.486Z,60.03
2019-04-20T19:09:30.439Z,64.58
2019-04-20T19:12:02.882Z,63.59
2019-04-20T19:14:42.042Z,60.01
2019-04-20T19:17:16.718Z,60.59
2019-04-20T19:19:48.483Z,66.04
2019-04-20T19:22:14.305Z,69.20
2019-04-20T19:24:44.920Z,68.55
2019-04-20T19:27:17.009Z,67.54
2019-04-20T19:29:55.571Z,67.64
2019-04-20T19:32:30.263Z,68.34
2019-04-20T19:34:54.995Z,68.98
2019-04-20T19:37:24.238Z,68.55
2019-04-20T19:40:02.818Z,69.02
2019-04-20T19:42:34.725Z,71.26
2019-04-20T19:45:01.645Z,73.25
2019-04-20T19:47:41.606Z,72.42
2019-04-20T19:50:22.029Z,72.17
2019-04-20T19:53:09.691Z,71.69
2019-04-20T19:55:11.414Z,72.07
2019-04-20T19:57:42.447Z,72.42
2019-04-20T19:59:55.910Z,75.02
2019-04-20T20:02:23.691Z,73.85
2019-04-20T20:04:58.545Z,74.59
2019-04-20T20:07:30.897Z,75.75
2019-04-20T20:09:58.209Z,75.96
2019-04-20T20:12:25.344Z,75.79
2019-04-20T20:14:55.403Z,76.54
2019-04-20T20:17:45.362Z,77.26
2019-04-20T20:20:20.351Z,77.18
2019-04-20T20:22:35.199Z,78.26
2019-04-20T20:24:56.815Z,76.72
2019-04-20T20:27:32.588Z,76.14
2019-04-20T20:30:08.216Z,78.32
2019-04-20T20:32:49.070Z,78.98
2019-04-20T20:35:07.213Z,80.38
2019-04-20T20:37:34.662Z,79.39
2019-04-20T20:40:15.195Z,79.75
2019-04-20T20:42:45.815Z,80.96
2019-04-20T20:45:11.971Z,81.94
2019-04-20T20:47:47.158Z,80.62
2019-04-20T20:50:20.391Z,83.54
2019-04-20T20:52:50.852Z,85.63
2019-04-20T20:55:18.223Z,84.15
2019-04-20T20:57:44.877Z,84.55
2019-04-20T21:00:25.258Z,86.03
2019-04-20T21:02:47.197Z,86.73
2019-04-20T21:05:09.743Z,85.10
2019-04-20T21:07:38.650Z,85.58
2019-04-20T21:10:08.745Z,84.99
2019-04-20T21:12:45.505Z,86.65
2019-04-20T21:15:16.345Z,86.92
2019-04-20T21:18:05.542Z,88.80
2019-04-20T21:20:32.802Z,91.84
2019-04-20T21:22:58.722Z,94.17
2019-04-20T21:25:13.010Z,94.56
2019-04-20T21:27:42.564Z,92.16
2019-04-20T21:30:18.401Z,89.81
2019-04-20T21:32:46.990Z,88.76
2019-04-20T21:35:15.932Z,91.31
2019-04-20T21:37:51.251Z,93.38
2019-04-20T21:40:23.289Z,93.72
2019-04-20T21:42:51.643Z,95.23
2019-04-20T21:45:19.457Z,94.55
2019-04-20T21:47:48.290Z,96.47
2019-04-20T21:50:34.416Z,96.57
2019-04-20T21:52:51.998Z,96.63
2019-04-20T21:55:18.352Z,96.70
2019-04-20T21:57:51.692Z,97.88
2019-04-20T22:00:40.159Z,96.93
2019-04-20T22:03:06.277Z,97.24
2019-04-20T22:05:34.603Z,97.60
2019-04-20T22:08:07.859Z,96.46
2019-04-20T22:10:34.659Z,96.55
2019-04-20T22:13:06.303Z,99.04
2019-04-20T22:15:45.398Z,99.58
2019-04-20T22:18:10.981Z,100.00
2019-04-20T22:20:49.372Z,99.75
2019-04-20T22:23:23.285Z,100.00
2019-04-20T22:25:53.102Z,100.00
2019-04-20T22:28:08.739Z,100.00
2019-04-20T22:30:37.963Z,100.00
2019-04-20T22:33:08.217Z,100.00
2019-04-20T22:35:47.904Z,100.00
2019-04-20T22:38:26.682Z,100.00
2019-04-20T22:40:56.591Z,100.00
2019-04-20T22:43:30.183Z,100.00
2019-04-20T22:45:57.199Z,100.00
2019-04-20T22:48:27.060Z,100.00
2019-04-20T22:51:14.271Z,100.00
2019-04-20T22:53:45.600Z,100.00
2019-04-20T22:56:19.765Z,100.00
2019-04-20T22:58:47.943Z,100.00
2019-04-20T23:01:05.269Z,100.00
2019-04-20T23:03:30.955Z,100.00
2019-04-20T23:06:00.636Z,100.00
2019-04-20T23:08:30.684Z,100.00
2019-04-20T23:11:02.590Z,100.00
2019-04-20T23:13:38.028Z,100.00
2019-04-20T23:16:02.633Z,100.00
2019-04-20T23:18:31.936Z,100.00
2019-04-20T23:21:06.290Z,100.00
2019-04-20T23:23:32.539Z,100.00
2019-04-20T23:26:03.009Z,100.00
2019-04-20T23:28:33.252Z,100.00
2019-04-20T23:31:07.409Z,100.00
2019-04-20T23:33:32.651Z,100.00
2019-04-20T23:36:04.390Z,100.00
2019-04-20T23:38:32.919Z,100.00
2019-04-20T23:41:01.833Z,100.00
2019-04-20T23:43:36.780Z,100.00
2019-04-20T23:46:22.268Z,100.00
2019-04-20T23:48:48.108Z,100.00
2019-04-20T23:51:46.203Z,100.00
2019-04-20T23:53:56.786Z,100.00
2019-04-20T23:56:20.168Z,100.00
2019-04-20T23:58:52.949Z,100.00
